Time;durP1;ratioP1;P1;durP2;ratioP2;P2;SDS_P1;SDS_P2;PMS_P1;PMS_P2;Temp;Humidity;BMP_temperature;BMP_pressure;BME280_temperature;BME280_humidity;BME280_pressure;Samples;Min_cycle;Max_cycle;Signal;HPM_P1;HPM_P2
2023/08/29 00:02:21;;;;;;;23.30;8.57;;;;;;;27.39;39.48;99616.77;127585;1098;102036;-79
2023/08/29 00:04:53;;;;;;;24.15;8.50;;;;;;;27.33;39.70;99617.96;125830;1099;101957;-79
2023/08/29 00:07:24;;;;;;;19.00;7.80;;;;;;;27.32;39.69;99626.98;125441;1099;101989;-79
2023/08/29 00:09:56;;;;;;;16.97;7.50;;;;;;;27.30;40.21;99622.56;125513;1099;101923;-78
2023/08/29 00:12:31;;;;;;;20.67;6.80;;;;;;;27.22;40.59;99620.23;126253;1099;101788;-79
2023/08/29 00:15:05;;;;;;;18.60;6.97;;;;;;;27.19;40.74;99618.58;126243;1099;102012;-78
2023/08/29 00:17:36;;;;;;;20.12;7.92;;;;;;;27.21;40.55;99623.89;125832;1099;102083;-79
2023/08/29 00:20:10;;;;;;;19.00;7.00;;;;;;;27.19;40.74;99621.27;125682;1099;102038;-79
2023/08/29 00:22:41;;;;;;;18.47;6.53;;;;;;;27.17;41.28;99620.45;125699;1099;104179;-79
2023/08/29 00:25:13;;;;;;;23.27;6.60;;;;;;;27.08;41.70;99624.47;125756;1099;101871;-78
2023/08/29 00:27:44;;;;;;;19.47;7.33;;;;;;;27.05;41.82;99623.71;127216;1098;102066;-79
2023/08/29 00:30:20;;;;;;;21.13;7.77;;;;;;;27.07;41.40;99621.84;127668;1099;101622;-79
2023/08/29 00:32:51;;;;;;;15.83;6.37;;;;;;;27.01;42.06;99617.61;127448;1099;101937;-78
2023/08/29 00:35:22;;;;;;;19.87;7.23;;;;;;;26.97;42.25;99615.98;126321;1099;101683;-79
2023/08/29 00:37:53;;;;;;;19.10;7.23;;;;;;;26.82;42.52;99612.20;126442;1099;101567;-78
2023/08/29 00:40:29;;;;;;;22.27;8.47;;;;;;;26.68;42.83;99615.52;127198;1099;101695;-79
2023/08/29 00:43:01;;;;;;;18.07;6.97;;;;;;;26.55;43.56;99623.23;127266;1098;101727;-78
2023/08/29 00:45:36;;;;;;;16.93;6.92;;;;;;;26.49;43.17;99617.23;125919;1099;102429;-78
2023/08/29 00:48:09;;;;;;;22.73;7.40;;;;;;;26.41;43.83;99628.33;126115;1099;102036;-79
2023/08/29 00:50:41;;;;;;;23.37;7.53;;;;;;;26.37;44.28;99632.11;125231;1099;101791;-78
2023/08/29 00:53:15;;;;;;;19.57;7.23;;;;;;;26.32;44.51;99636.83;125089;1099;104275;-77
2023/08/29 00:55:44;;;;;;;;;;;;;;;26.26;43.44;99642.47;126609;1099;101816;-78
2023/08/29 00:58:16;;;;;;;22.37;7.00;;;;;;;26.30;44.39;99636.89;126934;1099;101896;-78
2023/08/29 01:00:49;;;;;;;16.40;6.60;;;;;;;26.35;43.87;99640.24;126455;1099;101816;-79
2023/08/29 01:03:21;;;;;;;17.25;6.60;;;;;;;26.34;44.39;99638.48;127088;1099;101596;-80
2023/08/29 01:05:52;;;;;;;22.60;7.27;;;;;;;26.33;44.31;99638.55;126786;1098;102087;-79
2023/08/29 01:08:24;;;;;;;18.40;6.53;;;;;;;26.34;44.60;99638.48;127248;1099;101660;-79
2023/08/29 01:11:02;;;;;;;18.17;7.03;;;;;;;26.36;44.59;99635.73;127705;1099;101944;-80
2023/08/29 01:13:46;;;;;;;19.90;7.07;;;;;;;26.34;44.66;99626.86;127525;1098;102204;-80
2023/08/29 01:16:24;;;;;;;22.00;7.05;;;;;;;26.31;44.75;99633.23;126807;1099;104178;-79
2023/08/29 01:18:56;;;;;;;17.53;6.67;;;;;;;26.26;45.11;99645.16;125936;1098;104179;-79
2023/08/29 01:21:37;;;;;;;16.90;7.40;;;;;;;26.25;45.24;99643.39;126045;1102;103066;-80
2023/08/29 01:24:21;;;;;;;17.50;6.90;;;;;;;26.22;45.13;99643.52;126550;1099;101946;-80
2023/08/29 01:26:53;;;;;;;17.47;7.30;;;;;;;26.19;45.62;99641.83;125961;1102;104213;-80
2023/08/29 01:29:27;;;;;;;18.87;7.17;;;;;;;26.18;45.80;99635.59;125768;1099;102544;-80
2023/08/29 01:32:03;;;;;;;16.90;6.73;;;;;;;26.18;46.07;99627.52;125980;1099;101858;-81
2023/08/29 01:34:34;;;;;;;19.50;6.70;;;;;;;26.22;45.83;99627.39;125964;1099;104191;-82
2023/08/29 01:37:06;;;;;;;15.70;6.47;;;;;;;26.22;45.68;99633.63;125752;1099;101922;-80
2023/08/29 01:39:41;;;;;;;24.57;6.87;;;;;;;26.22;46.12;99640.84;126423;1099;101984;-81
2023/08/29 01:42:13;;;;;;;20.07;7.07;;;;;;;26.17;45.86;99641.03;126108;1099;102006;-81
2023/08/29 01:44:45;;;;;;;19.30;6.60;;;;;;;26.17;46.47;99635.66;126889;1099;101759;-81
2023/08/29 01:47:16;;;;;;;17.07;7.00;;;;;;;26.17;46.53;99635.66;126699;1098;101548;-81
2023/08/29 01:49:48;;;;;;;15.67;6.53;;;;;;;26.18;46.08;99632.90;125572;1099;104389;-80
2023/08/29 01:52:19;;;;;;;16.93;6.90;;;;;;;26.17;46.47;99641.89;125579;1099;104220;-80
2023/08/29 01:54:51;;;;;;;18.47;6.83;;;;;;;26.16;46.17;99639.27;125638;1099;104271;-81
2023/08/29 01:57:24;;;;;;;15.97;6.67;;;;;;;26.13;46.37;99639.39;126054;1099;104099;-80
2023/08/29 01:59:57;;;;;;;18.20;7.07;;;;;;;26.13;46.71;99648.36;125762;1099;104185;-80
2023/08/29 02:02:29;;;;;;;21.10;7.37;;;;;;;26.13;46.19;99642.98;126322;1099;101989;-81
2023/08/29 02:05:01;;;;;;;15.20;7.20;;;;;;;26.11;46.37;99642.15;125592;1099;104147;-80
2023/08/29 02:07:32;;;;;;;16.77;6.67;;;;;;;26.11;46.83;99636.77;125769;1099;104217;-80
2023/08/29 02:10:06;;;;;;;16.77;7.05;;;;;;;26.09;46.83;99630.59;125664;1099;104288;-80
2023/08/29 02:12:37;;;;;;;19.80;6.73;;;;;;;26.11;46.66;99631.40;126606;1099;101623;-80
2023/08/29 02:15:11;;;;;;;17.50;6.97;;;;;;;26.11;46.31;99630.53;125788;1099;104313;-80
2023/08/29 02:17:42;;;;;;;16.77;6.97;;;;;;;26.09;46.90;99627.91;125597;1099;104335;-80
2023/08/29 02:20:15;;;;;;;19.40;7.13;;;;;;;26.07;46.35;99632.48;125516;1099;104124;-80
2023/08/29 02:22:46;;;;;;;17.92;7.58;;;;;;;26.05;46.63;99633.48;125763;1099;104105;-80
2023/08/29 02:25:18;;;;;;;17.87;7.30;;;;;;;25.97;46.79;99639.14;125842;1099;101928;-79
2023/08/29 02:27:49;;;;;;;17.33;7.10;;;;;;;25.82;47.17;99637.95;126007;1099;101895;-79
2023/08/29 02:30:21;;;;;;;19.57;7.07;;;;;;;25.74;47.07;99630.23;125575;1099;102115;-79
2023/08/29 02:32:52;;;;;;;18.93;7.57;;;;;;;25.62;47.89;99634.28;125630;1099;104179;-79
2023/08/29 02:35:24;;;;;;;17.63;7.03;;;;;;;25.49;47.54;99633.01;125898;1099;104213;-79
2023/08/29 02:37:55;;;;;;;22.00;7.90;;;;;;;25.35;48.01;99638.05;125691;1098;101999;-79
2023/08/29 02:40:29;;;;;;;16.37;6.77;;;;;;;25.22;47.77;99641.17;125665;1102;102044;-79
2023/08/29 02:43:00;;;;;;;22.47;7.47;;;;;;;25.16;48.28;99636.05;125720;1099;104372;-80
2023/08/29 02:45:33;;;;;;;18.23;7.17;;;;;;;25.16;48.15;99635.17;126686;1098;104194;-79
2023/08/29 02:48:06;;;;;;;15.27;6.87;;;;;;;25.14;47.94;99632.55;125637;1099;101721;-79
2023/08/29 02:50:37;;;;;;;15.48;6.60;;;;;;;25.10;48.22;99637.17;125859;1099;101885;-79
2023/08/29 02:53:09;;;;;;;20.10;6.70;;;;;;;25.01;48.37;99639.30;125581;1099;104236;-81
2023/08/29 02:55:42;;;;;;;18.50;7.73;;;;;;;24.81;48.73;99635.57;124999;1102;102072;-81
2023/08/29 02:58:13;;;;;;;15.40;7.10;;;;;;;24.65;48.97;99635.27;125421;1099;104397;-81
2023/08/29 03:00:45;;;;;;;19.10;7.50;;;;;;;24.54;49.01;99634.72;125654;1096;104166;-80
2023/08/29 03:03:17;;;;;;;17.00;7.30;;;;;;;24.53;48.92;99632.98;126972;1098;101851;-80
2023/08/29 03:05:57;;;;;;;15.30;7.53;;;;;;;24.47;49.86;99636.75;126411;1099;102972;-80
2023/08/29 03:08:29;;;;;;;17.37;7.20;;;;;;;24.43;49.61;99639.59;126171;1099;104386;-80
2023/08/29 03:11:05;;;;;;;19.23;7.00;;;;;;;24.34;50.06;99630.95;125511;1099;104064;-80
2023/08/29 03:13:36;;;;;;;17.40;7.17;;;;;;;24.27;50.15;99632.08;125450;1099;102106;-79
2023/08/29 03:16:15;;;;;;;19.40;7.07;;;;;;;24.15;50.47;99636.08;125874;1099;102132;-81
2023/08/29 03:18:47;;;;;;;19.77;7.17;;;;;;;24.04;50.40;99636.44;126591;1098;101909;-81
2023/08/29 03:21:18;;;;;;;22.77;7.10;;;;;;;23.94;50.42;99634.11;125719;1099;104217;-81
2023/08/29 03:23:50;;;;;;;20.80;7.40;;;;;;;23.86;50.71;99631.69;127205;1099;102013;-80
2023/08/29 03:26:21;;;;;;;19.53;7.27;;;;;;;23.78;50.70;99637.26;125626;1097;102010;-81
2023/08/29 03:28:53;;;;;;;22.17;8.03;;;;;;;23.72;50.66;99637.45;126551;1099;102175;-80
2023/08/29 03:31:24;;;;;;;19.20;7.73;;;;;;;23.65;50.92;99644.83;125774;1099;101977;-80
2023/08/29 03:33:56;;;;;;;16.97;7.17;;;;;;;23.62;51.22;99644.92;125507;1099;101888;-81
2023/08/29 03:36:29;;;;;;;19.55;6.67;;;;;;;23.60;51.21;99645.88;125884;1099;101995;-80
2023/08/29 03:39:01;;;;;;;20.57;6.80;;;;;;;23.62;51.45;99646.70;125511;1099;104242;-80
2023/08/29 03:41:33;;;;;;;17.67;6.83;;;;;;;23.64;51.56;99644.88;125636;1099;101922;-81
2023/08/29 03:44:05;;;;;;;20.30;7.27;;;;;;;23.65;51.43;99641.25;125877;1099;102024;-80
2023/08/29 03:46:36;;;;;;;18.23;7.70;;;;;;;23.66;51.83;99638.52;125733;1100;102096;-80
2023/08/29 03:49:07;;;;;;;17.87;7.43;;;;;;;23.69;51.50;99641.09;125625;1099;102278;-80
2023/08/29 03:51:39;;;;;;;17.00;6.97;;;;;;;23.71;51.65;99642.86;125152;1099;104239;-79
2023/08/29 03:54:10;;;;;;;20.50;8.27;;;;;;;23.71;51.74;99642.86;125444;1099;102028;-80
2023/08/29 03:56:43;;;;;;;20.57;7.67;;;;;;;23.73;52.14;99638.33;125545;1100;104231;-80
2023/08/29 03:59:15;;;;;;;17.80;7.47;;;;;;;23.76;51.86;99633.73;125190;1099;101831;-81
2023/08/29 04:01:46;;;;;;;16.83;6.97;;;;;;;23.75;52.08;99631.10;124820;1102;104353;-79
2023/08/29 04:04:35;;;;;;;18.13;7.37;;;;;;;23.71;52.40;99637.50;126355;1098;101858;-82
2023/08/29 04:07:07;;;;;;;18.50;7.63;;;;;;;23.67;52.87;99645.64;125300;1099;104192;-80
2023/08/29 04:09:39;;;;;;;23.07;8.70;;;;;;;23.65;52.87;99644.83;125806;1099;101937;-81
2023/08/29 04:12:11;;;;;;;16.90;7.77;;;;;;;23.63;52.65;99643.97;124879;1102;104236;-80
2023/08/29 04:14:42;;;;;;;24.97;7.37;;;;;;;23.62;53.15;99649.38;124838;1102;104242;-80
2023/08/29 04:17:13;;;;;;;16.93;7.67;;;;;;;23.62;53.01;99644.92;126019;1098;101778;-81
2023/08/29 04:19:45;;;;;;;21.43;8.00;;;;;;;23.63;53.17;99643.97;124826;1099;104189;-81
2023/08/29 04:22:16;;;;;;;19.30;7.13;;;;;;;23.64;53.43;99645.73;125184;1099;104207;-80
2023/08/29 04:24:48;;;;;;;20.50;7.40;;;;;;;23.63;53.69;99641.30;124910;1099;104349;-80
2023/08/29 04:27:20;;;;;;;21.33;7.73;;;;;;;23.68;53.30;99647.41;126469;1097;102179;-81
2023/08/29 04:29:51;;;;;;;19.40;7.27;;;;;;;23.71;53.45;99642.86;125269;1099;101880;-81
2023/08/29 04:32:22;;;;;;;20.63;7.50;;;;;;;23.71;53.61;99648.22;124812;1099;104240;-82
2023/08/29 04:34:54;;;;;;;22.43;7.93;;;;;;;23.67;53.38;99655.48;126540;1098;101988;-81
2023/08/29 04:37:25;;;;;;;22.10;7.40;;;;;;;23.69;53.58;99656.30;126057;1099;102155;-81
2023/08/29 04:39:57;;;;;;;24.63;7.07;;;;;;;23.72;53.47;99642.81;125451;1099;101783;-82
2023/08/29 04:42:29;;;;;;;21.03;7.40;;;;;;;23.77;53.75;99648.02;126363;1098;101925;-80
2023/08/29 04:45:04;;;;;;;23.67;7.23;;;;;;;23.78;53.63;99655.11;124909;1099;102070;-80
2023/08/29 04:47:38;;;;;;;21.33;7.53;;;;;;;23.79;53.65;99648.84;125537;1098;102461;-77
2023/08/29 04:50:11;;;;;;;18.57;7.17;;;;;;;23.83;53.80;99646.02;124903;1102;102134;-81
2023/08/29 04:52:48;;;;;;;17.40;7.15;;;;;;;23.92;53.53;99649.34;125783;1099;102016;-85
2023/08/29 04:55:21;;;;;;;22.77;7.20;;;;;;;24.00;53.28;99648.17;125935;1102;102101;-83
2023/08/29 04:57:56;;;;;;;17.30;7.23;;;;;;;24.05;53.38;99662.28;125907;1098;104195;-82
2023/08/29 05:00:28;;;;;;;22.20;7.63;;;;;;;24.12;53.18;99654.05;125400;1099;102215;-79
2023/08/29 05:03:00;;;;;;;19.00;7.13;;;;;;;24.19;53.33;99647.56;125885;1098;104166;-79
2023/08/29 05:05:32;;;;;;;19.37;7.57;;;;;;;24.27;53.65;99650.84;124843;1101;102186;-80
2023/08/29 05:08:06;;;;;;;23.70;7.70;;;;;;;24.31;53.16;99652.50;125378;1099;102318;-78
2023/08/29 05:10:43;;;;;;;20.37;7.87;;;;;;;24.34;53.28;99647.03;124652;1099;104165;-77
2023/08/29 05:13:15;;;;;;;21.83;8.37;;;;;;;24.33;52.86;99642.59;125562;1099;104079;-79
2023/08/29 05:15:47;;;;;;;23.00;6.97;;;;;;;24.40;52.81;99644.14;125596;1099;102210;-81
2023/08/29 05:18:21;;;;;;;17.70;7.07;;;;;;;24.54;52.82;99649.02;127324;1098;101699;-80
2023/08/29 05:20:55;;;;;;;19.03;7.10;;;;;;;24.61;52.88;99649.70;126342;1099;104184;-76
2023/08/29 05:23:27;;;;;;;21.10;7.60;;;;;;;24.68;52.65;99645.88;126404;1099;101775;-79
2023/08/29 05:26:01;;;;;;;22.37;7.70;;;;;;;24.76;53.13;99646.47;127508;1098;102176;-80
2023/08/29 05:28:38;;;;;;;18.37;7.80;;;;;;;24.91;52.76;99644.15;125758;1102;102105;-77
2023/08/29 05:31:10;;;;;;;23.93;7.03;;;;;;;25.05;52.64;99644.50;125419;1099;104367;-80
2023/08/29 05:33:43;;;;;;;17.17;6.60;;;;;;;25.18;52.40;99652.09;125671;1099;104198;-79
2023/08/29 05:36:23;;;;;;;18.50;6.93;;;;;;;25.22;52.37;99653.73;127369;1098;102073;-78
2023/08/29 05:38:55;;;;;;;19.63;6.63;;;;;;;25.28;52.25;99653.50;125452;1099;102519;-79
2023/08/29 05:41:32;;;;;;;21.20;7.10;;;;;;;25.41;51.62;99661.98;124634;1099;101984;-79
2023/08/29 05:44:12;;;;;;;26.67;6.93;;;;;;;25.56;51.48;99664.07;126180;1098;104172;-82
2023/08/29 05:46:45;;;;;;;19.27;6.53;;;;;;;25.71;51.19;99664.38;125721;1098;101908;-82
2023/08/29 05:49:20;;;;;;;15.37;6.80;;;;;;;25.82;51.45;99657.66;125765;1099;104233;-86
2023/08/29 05:52:00;;;;;;;15.60;6.97;;;;;;;25.95;50.99;99666.08;125864;1099;102654;-84
2023/08/29 05:54:37;;;;;;;21.60;6.93;;;;;;;26.06;50.69;99659.44;127191;1098;101762;-82
2023/08/29 05:57:25;;;;;;;14.93;6.53;;;;;;;26.14;50.12;99658.16;126575;1099;101990;-82
2023/08/29 05:59:59;;;;;;;22.30;7.47;;;;;;;26.25;50.13;99655.02;126277;1098;101846;-83
2023/08/29 06:02:41;;;;;;;20.07;6.77;;;;;;;26.33;50.04;99657.37;125942;1099;102235;-80
2023/08/29 06:05:19;;;;;;;21.87;7.07;;;;;;;26.43;49.86;99649.77;125238;1099;118199;-80
2023/08/29 06:08:13;;;;;;;19.03;7.10;;;;;;;26.54;49.56;99648.38;125568;1099;101919;-85
2023/08/29 06:10:46;;;;;;;17.67;6.73;;;;;;;26.69;49.83;99645.98;125756;1102;101893;-77
2023/08/29 06:13:33;;;;;;;18.40;7.23;;;;;;;26.78;49.77;99644.70;125468;1099;101992;-82
2023/08/29 06:16:09;;;;;;;20.67;7.40;;;;;;;26.91;49.65;99640.49;126347;1098;101272;-78
2023/08/29 06:18:58;;;;;;;20.30;6.93;;;;;;;27.01;49.31;99643.66;126678;1098;104256;-78
2023/08/29 06:21:52;;;;;;;23.37;7.50;;;;;;;27.12;49.15;99637.78;127054;1098;101922;-82
2023/08/29 06:24:33;;;;;;;22.07;6.63;;;;;;;27.22;49.19;99639.98;125758;1099;102215;-81
2023/08/29 06:27:08;;;;;;;19.00;6.27;;;;;;;27.25;49.07;99626.37;125762;1099;104216;-81
2023/08/29 06:29:40;;;;;;;;;;;;;;;27.41;48.69;99641.80;126883;1098;104317;-82
2023/08/29 06:32:22;;;;;;;21.67;7.40;;;;;;;27.52;48.76;99644.88;126097;1099;103330;-81
2023/08/29 06:35:02;;;;;;;26.83;7.10;;;;;;;27.61;48.35;99641.74;126222;1098;101797;-82
2023/08/29 06:37:55;;;;;;;24.13;7.17;;;;;;;27.72;48.43;99645.72;126298;1099;102115;-80
2023/08/29 06:40:35;;;;;;;19.67;7.10;;;;;;;27.88;48.33;99645.86;126176;1099;102391;-83
2023/08/29 06:43:13;;;;;;;26.17;6.93;;;;;;;28.03;47.95;99644.23;125780;1097;101767;-81
2023/08/29 06:45:44;;;;;;;13.50;5.80;;;;;;;28.18;47.88;99643.47;125912;1099;104155;-81
2023/08/29 06:48:33;;;;;;;13.57;5.60;;;;;;;28.30;47.27;99648.23;126139;1099;102000;-76
2023/08/29 06:52:10;;;;;;;;;;;;;;;;;;;;;
2023/08/29 07:17:46;;;;;;;17.03;5.60;;;;;;;30.03;44.18;99633.45;127590;1093;101226;-79
2023/08/29 08:05:19;;;;;;;21.87;6.57;;;;;;;33.23;37.84;99610.84;126509;1102;102093;-81
2023/08/29 08:07:55;;;;;;;18.97;6.80;;;;;;;33.38;37.26;99602.53;126168;1102;104191;-87
2023/08/29 08:10:29;;;;;;;18.17;6.07;;;;;;;33.59;36.74;99603.66;125910;1105;104290;-83
2023/08/29 08:13:03;;;;;;;24.40;6.77;;;;;;;33.71;36.26;99604.64;126393;1101;102229;-83
2023/08/29 08:15:42;;;;;;;25.33;6.60;;;;;;;33.68;36.00;99613.86;125499;1105;106955;-78
2023/08/29 08:18:17;;;;;;;18.73;6.40;;;;;;;33.71;35.91;99606.47;124287;1105;101863;-77
2023/08/29 08:24:39;;;;;;;13.97;6.37;;;;;;;33.95;33.75;99596.45;124851;1105;104318;-78
2023/08/29 08:27:14;;;;;;;15.93;7.20;;;;;;;34.10;33.53;99593.57;125481;1102;101939;-77
2023/08/29 08:29:46;;;;;;;20.77;7.03;;;;;;;34.23;33.13;99593.48;123893;1106;101896;-76
2023/08/29 08:32:27;;;;;;;17.70;6.40;;;;;;;34.37;33.44;99591.43;124140;1102;101905;-77
2023/08/29 08:35:06;;;;;;;18.73;6.83;;;;;;;34.51;33.44;99592.22;124983;1105;101895;-77
2023/08/29 08:37:39;;;;;;;14.50;6.40;;;;;;;34.64;33.04;99590.27;124200;1105;104214;-76
2023/08/29 08:40:26;;;;;;;;;;;;;;;34.67;33.03;99584.58;125275;1101;102045;-80
2023/08/29 08:43:00;;;;;;;14.73;6.10;;;;;;;34.67;32.73;99580.96;125788;1102;101922;-77
2023/08/29 08:45:33;;;;;;;15.73;6.57;;;;;;;34.72;31.96;99578.77;126738;1101;101690;-82
2023/08/29 08:48:09;;;;;;;13.87;6.10;;;;;;;34.80;32.38;99579.03;126157;1102;101668;-81
2023/08/29 08:50:49;;;;;;;16.33;6.57;;;;;;;34.90;31.91;99573.70;124791;1105;104313;-77
2023/08/29 08:53:29;;;;;;;15.93;6.80;;;;;;;34.95;31.94;99570.61;124200;1105;104217;-77
2023/08/29 08:56:04;;;;;;;15.13;6.27;;;;;;;34.98;31.89;99581.27;125765;1102;102031;-79
2023/08/29 08:58:38;;;;;;;20.10;6.67;;;;;;;34.97;31.33;99577.67;125877;1102;101807;-78
2023/08/29 09:01:12;;;;;;;17.43;6.23;;;;;;;35.02;31.83;99569.98;126721;1102;101948;-77
2023/08/29 09:03:45;;;;;;;17.73;6.03;;;;;;;35.09;31.35;99573.06;125240;1102;104221;-83
2023/08/29 09:06:20;;;;;;;17.70;6.00;;;;;;;35.21;31.12;99571.20;125155;1102;104130;-79
2023/08/29 09:08:52;;;;;;;12.23;6.43;;;;;;;35.26;31.00;99572.61;124952;1102;102169;-75
2023/08/29 09:11:24;;;;;;;15.20;6.55;;;;;;;35.33;30.83;99562.05;125263;1101;104150;-78
2023/08/29 09:13:59;;;;;;;16.62;6.55;;;;;;;35.52;30.89;99560.52;124219;1102;101871;-79
2023/08/29 09:16:31;;;;;;;16.77;6.70;;;;;;;35.59;30.77;99567.17;124827;1102;102119;-78
2023/08/29 09:19:06;;;;;;;17.90;6.60;;;;;;;35.58;30.60;99560.86;125445;1103;104213;-77
2023/08/29 09:21:53;;;;;;;14.90;6.00;;;;;;;35.60;30.80;99574.37;125328;1105;101925;-77
2023/08/29 09:24:39;;;;;;;17.27;6.33;;;;;;;35.61;30.17;99554.30;124788;1105;104362;-80
2023/08/29 09:27:20;;;;;;;12.17;5.70;;;;;;;35.69;29.88;99557.23;124711;1102;107752;-76
2023/08/29 09:29:51;;;;;;;19.47;6.27;;;;;;;35.80;29.99;99559.09;124728;1102;104169;-79
2023/08/29 09:32:24;;;;;;;16.97;6.50;;;;;;;35.97;29.57;99560.38;123893;1106;104211;-78
2023/08/29 09:35:19;;;;;;;17.37;6.30;;;;;;;36.06;29.69;99559.59;124984;1105;104306;-81
2023/08/29 09:37:52;;;;;;;15.87;6.70;;;;;;;36.30;29.75;99559.34;125858;1103;104213;-78
2023/08/29 09:40:29;;;;;;;20.23;6.90;;;;;;;36.41;29.33;99558.41;124104;1105;104220;-76
2023/08/29 09:43:08;;;;;;;18.15;6.65;;;;;;;36.37;29.23;99556.08;125254;1105;102054;-79
2023/08/29 09:45:41;;;;;;;15.90;7.05;;;;;;;36.49;29.46;99555.86;125218;1105;101919;-81
2023/08/29 09:48:13;;;;;;;16.35;6.67;;;;;;;36.56;29.36;99555.31;125560;1105;104162;-81
2023/08/29 09:51:00;;;;;;;16.23;6.67;;;;;;;36.65;29.17;99549.04;125958;1105;104271;-82
2023/08/29 09:53:48;;;;;;;16.07;6.90;;;;;;;36.66;28.99;99550.78;124904;1104;101823;-79
2023/08/29 09:56:32;;;;;;;15.00;6.37;;;;;;;36.70;28.93;99552.25;125288;1105;101919;-79
2023/08/29 09:59:15;;;;;;;22.20;7.50;;;;;;;36.75;28.86;99552.73;125593;1105;101905;-80
2023/08/29 10:02:21;;;;;;;;;;;;;;;;;;;;;
2023/08/29 10:05:08;;;;;;;;;;;;;;;36.58;28.44;99556.07;124395;1102;104258;-78
2023/08/29 10:08:01;;;;;;;22.53;7.10;;;;;;;36.60;28.61;99559.52;125718;1102;104335;-80
2023/08/29 10:10:55;;;;;;;17.60;7.00;;;;;;;36.63;28.43;99551.91;125286;1102;104124;-80
2023/08/29 10:14:04;;;;;;;16.63;7.07;;;;;;;36.68;28.24;99551.50;126002;1101;102404;-81
2023/08/29 10:16:40;;;;;;;16.83;7.00;;;;;;;36.79;28.36;99548.73;126256;1100;101927;-81
2023/08/29 10:19:14;;;;;;;21.27;7.63;;;;;;;36.85;28.19;99542.72;125160;1100;104198;-81
2023/08/29 10:21:50;;;;;;;17.60;7.10;;;;;;;36.88;28.19;99539.67;125771;1102;104242;-82
2023/08/29 10:24:23;;;;;;;17.27;7.70;;;;;;;37.00;28.18;99536.86;126195;1102;101660;-81
2023/08/29 10:27:00;;;;;;;16.60;7.10;;;;;;;37.11;27.86;99530.42;125822;1101;101946;-82
2023/08/29 10:29:45;;;;;;;17.07;6.87;;;;;;;37.18;28.05;99535.19;125167;1102;104089;-82
2023/08/29 10:32:36;;;;;;;21.07;7.60;;;;;;;37.27;28.03;99535.37;124991;1102;102116;-80
2023/08/29 10:35:29;;;;;;;;;;;;;;;;;;;;;
2023/08/29 10:38:18;;;;;;;15.30;7.67;;;;;;;37.35;27.78;99532.80;125313;1102;104127;-85
2023/08/29 10:41:17;;;;;;;17.83;7.37;;;;;;;37.44;27.75;99537.42;127117;1101;101956;-84
2023/08/29 10:43:53;;;;;;;15.10;6.50;;;;;;;37.56;27.44;99528.08;126062;1102;102120;-83
2023/08/29 10:46:28;;;;;;;19.63;7.27;;;;;;;37.64;27.35;99532.83;125741;1102;101747;-84
2023/08/29 10:49:02;;;;;;;18.10;7.60;;;;;;;37.59;27.26;99536.00;125100;1102;101784;-75
2023/08/29 10:51:38;;;;;;;15.13;6.57;;;;;;;37.57;27.11;99535.28;124322;1102;104191;-78
2023/08/29 10:54:15;;;;;;;13.00;6.70;;;;;;;37.53;27.12;99533.83;124336;1102;101947;-80
2023/08/29 11:00:35;;;;;;;20.60;7.50;;;;;;;37.46;26.95;99532.66;124241;1102;104229;-78
2023/08/29 11:03:58;;;;;;;16.90;7.30;;;;;;;37.40;27.16;99525.02;125049;1102;101816;-81
2023/08/29 11:07:00;;;;;;;17.20;6.93;;;;;;;37.45;27.07;99528.22;124784;1102;101976;-79
2023/08/29 11:09:49;;;;;;;;;;;;;;;;;;;;;
2023/08/29 11:13:02;;;;;;;18.57;6.87;;;;;;;37.67;26.73;99523.48;126070;1102;104236;-82
2023/08/29 11:16:16;;;;;;;18.00;6.67;;;;;;;37.76;26.46;99525.39;125113;1102;104310;-83
2023/08/29 11:19:11;;;;;;;13.37;6.80;;;;;;;37.83;26.14;99521.05;125509;1102;104166;-80
2023/08/29 11:25:02;;;;;;;14.17;6.33;;;;;;;37.73;26.33;99521.06;124551;1102;104249;-83
2023/08/29 11:27:42;;;;;;;13.57;6.87;;;;;;;37.68;26.36;99514.24;125137;1102;104169;-79
2023/08/29 11:30:17;;;;;;;14.83;6.60;;;;;;;37.64;26.24;99510.94;124648;1102;102001;-80
2023/08/29 11:32:53;;;;;;;19.03;6.97;;;;;;;37.72;26.30;99504.78;124586;1102;104199;-83
2023/08/29 11:35:48;;;;;;;16.07;7.00;;;;;;;37.79;26.33;99499.58;125622;1102;104160;-86
2023/08/29 11:38:34;;;;;;;14.07;6.43;;;;;;;37.86;26.29;99501.59;125219;1102;104346;-82
2023/08/29 11:41:20;;;;;;;16.20;6.40;;;;;;;37.88;26.17;99495.97;126037;1101;101880;-77
2023/08/29 11:44:06;;;;;;;14.37;6.67;;;;;;;37.89;26.28;99495.83;124313;1102;104273;-80
2023/08/29 11:46:37;;;;;;;18.03;7.00;;;;;;;37.88;26.30;99480.44;125955;1101;101869;-83
2023/08/29 11:49:24;;;;;;;14.83;7.20;;;;;;;37.86;26.58;99484.31;125646;1102;101840;-81
2023/08/29 11:52:16;;;;;;;15.57;6.90;;;;;;;37.86;26.26;99478.84;124864;1102;102528;-84
2023/08/29 11:55:01;;;;;;;16.17;6.87;;;;;;;37.87;26.34;99475.95;124924;1102;104365;-79
2023/08/29 11:57:54;;;;;;;15.80;6.23;;;;;;;37.80;26.17;99479.42;124263;1102;104332;-76
2023/08/29 12:00:35;;;;;;;16.00;6.30;;;;;;;37.80;26.25;99484.90;124907;1102;104203;-79
2023/08/29 12:03:16;;;;;;;16.17;6.37;;;;;;;37.77;26.32;99472.36;124228;1102;101927;-78
2023/08/29 12:06:15;;;;;;;13.40;6.70;;;;;;;37.80;26.58;99473.95;124233;1102;104198;-81
2023/08/29 12:08:53;;;;;;;14.43;6.40;;;;;;;37.85;26.52;99475.25;124895;1102;104336;-80
2023/08/29 12:11:49;;;;;;;15.20;6.20;;;;;;;37.97;26.72;99464.98;124890;1102;104169;-80
2023/08/29 12:14:28;;;;;;;18.40;6.17;;;;;;;37.95;26.45;99470.60;125313;1101;101925;-85
2023/08/29 12:17:09;;;;;;;16.23;5.97;;;;;;;37.97;26.42;99464.12;124986;1099;101814;-79
2023/08/29 12:19:46;;;;;;;14.73;5.83;;;;;;;37.99;26.33;99476.64;124719;1101;102182;-78
2023/08/29 12:22:36;;;;;;;18.67;6.03;;;;;;;37.93;26.34;99458.95;124367;1101;102073;-81
2023/08/29 12:25:21;;;;;;;15.13;6.13;;;;;;;37.87;26.26;99459.53;124199;1102;101865;-77
2023/08/29 12:27:55;;;;;;;15.50;6.47;;;;;;;37.79;26.38;99461.27;124226;1102;104626;-77
2023/08/29 12:30:34;;;;;;;14.43;6.37;;;;;;;37.77;26.60;99461.41;124270;1099;104274;-80
2023/08/29 12:36:33;;;;;;;22.23;7.00;;;;;;;37.56;27.21;99467.87;124219;1102;104267;-80
2023/08/29 12:39:30;;;;;;;15.47;6.10;;;;;;;37.39;27.21;99469.45;125089;1102;102088;-80
2023/08/29 12:42:12;;;;;;;17.75;6.03;;;;;;;37.38;27.25;99467.75;124098;1102;109393;-77
2023/08/29 12:44:59;;;;;;;16.70;6.10;;;;;;;37.34;27.80;99470.91;124238;1102;104345;-78
2023/08/29 12:47:46;;;;;;;15.80;6.00;;;;;;;37.25;27.72;99456.20;124267;1102;104372;-80
2023/08/29 12:50:32;;;;;;;12.28;6.03;;;;;;;37.26;27.82;99462.53;124200;1102;104175;-77
2023/08/29 12:53:11;;;;;;;17.27;6.03;;;;;;;37.27;28.08;99470.59;124366;1099;104054;-80
2023/08/29 12:56:17;;;;;;;17.00;6.40;;;;;;;37.27;27.93;99473.33;126230;1101;104248;-80
2023/08/29 12:59:05;;;;;;;15.93;6.73;;;;;;;37.20;27.87;99473.01;125657;1099;101830;-79
2023/08/29 13:02:09;;;;;;;14.90;5.77;;;;;;;37.21;28.01;99471.12;124237;1102;104315;-79
2023/08/29 13:04:46;;;;;;;15.20;6.00;;;;;;;37.16;27.80;99476.17;124754;1100;104226;-79
2023/08/29 13:07:33;;;;;;;13.07;5.80;;;;;;;37.08;27.80;99465.94;127133;1098;101804;-81
2023/08/29 13:10:13;;;;;;;19.20;6.30;;;;;;;37.02;27.78;99471.96;125729;1099;101823;-81
2023/08/29 13:16:02;;;;;;;15.77;6.17;;;;;;;37.08;27.66;99478.75;124981;1102;104242;-83
2023/08/29 13:21:52;;;;;;;15.17;6.00;;;;;;;37.01;27.42;99473.84;125465;1102;101744;-82
2023/08/29 13:24:32;;;;;;;13.07;5.63;;;;;;;36.98;27.33;99474.13;125203;1099;104182;-80
2023/08/29 13:27:12;;;;;;;18.07;6.47;;;;;;;36.97;27.18;99471.53;124373;1099;102041;-81
2023/08/29 13:32:52;;;;;;;16.13;5.93;;;;;;;36.92;26.89;99462.86;125301;1099;104221;-79
2023/08/29 13:35:28;;;;;;;17.87;6.20;;;;;;;36.83;26.64;99459.12;124420;1099;102234;-83